createdAt,value
2019-05-22T00:01:20.494Z,25.97
2019-05-22T00:03:57.696Z,26.07
2019-05-22T00:06:30.359Z,25.73
2019-05-22T00:08:59.526Z,27.10
2019-05-22T00:11:29.839Z,26.90
2019-05-22T00:14:00.271Z,27.80
2019-05-22T00:16:30.810Z,27.27
2019-05-22T00:18:59.914Z,28.70
2019-05-22T00:21:30.491Z,28.03
2019-05-22T00:24:00.092Z,29.23
2019-05-22T00:26:49.724Z,29.87
2019-05-22T00:29:19.715Z,27.23
2019-05-22T00:31:49.116Z,29.70
2019-05-22T00:34:18.838Z,29.53
2019-05-22T00:36:48.963Z,28.40
2019-05-22T00:39:19.015Z,28.53
2019-05-22T00:41:51.142Z,29.63
2019-05-22T00:44:21.028Z,28.17
2019-05-22T00:46:52.698Z,29.80
2019-05-22T00:49:24.671Z,29.67
2019-05-22T00:52:13.042Z,32.60
2019-05-22T00:55:01.889Z,31.73
2019-05-22T00:57:35.759Z,29.93
2019-05-22T01:00:24.818Z,30.67
2019-05-22T01:02:56.223Z,30.77
2019-05-22T01:05:27.783Z,30.53
2019-05-22T01:07:57.611Z,29.13
2019-05-22T01:10:30.190Z,27.30
2019-05-22T01:13:04.369Z,28.70
2019-05-22T01:15:35.089Z,28.20
2019-05-22T01:18:07.719Z,27.70
2019-05-22T01:20:38.075Z,27.20
2019-05-22T01:23:08.842Z,27.80
2019-05-22T01:25:38.846Z,25.77
2019-05-22T01:28:09.119Z,26.53
2019-05-22T01:30:45.582Z,26.07
2019-05-22T01:33:20.216Z,26.53
2019-05-22T01:36:07.519Z,25.57
2019-05-22T01:38:38.512Z,25.67
2019-05-22T01:41:14.755Z,25.73
2019-05-22T01:43:43.661Z,26.70
2019-05-22T01:46:14.134Z,26.00
2019-05-22T01:48:45.204Z,26.80
2019-05-22T01:51:15.724Z,26.57
2019-05-22T01:53:46.754Z,26.90
2019-05-22T01:56:18.855Z,26.50
2019-05-22T01:58:48.005Z,26.50
2019-05-22T02:01:22.079Z,25.30
2019-05-22T02:03:54.298Z,27.37
2019-05-22T02:06:24.869Z,27.57
2019-05-22T02:09:14.154Z,27.70
2019-05-22T02:11:45.671Z,29.03
2019-05-22T02:14:17.866Z,27.33
2019-05-22T02:16:56.580Z,27.47
2019-05-22T02:19:20.707Z,27.50
2019-05-22T02:21:50.279Z,28.20
2019-05-22T02:24:20.234Z,27.30
2019-05-22T02:26:49.188Z,27.17
2019-05-22T02:29:21.313Z,25.13
2019-05-22T02:31:55.583Z,25.40
2019-05-22T02:34:23.571Z,26.27
2019-05-22T02:36:53.684Z,25.33
2019-05-22T02:39:29.398Z,25.73
2019-05-22T02:42:03.192Z,24.60
2019-05-22T02:44:33.356Z,25.70
2019-05-22T02:47:18.013Z,23.37
2019-05-22T02:49:35.839Z,21.83
2019-05-22T02:52:06.671Z,22.67
2019-05-22T02:54:36.639Z,23.17
2019-05-22T02:57:06.696Z,23.63
2019-05-22T02:59:35.744Z,23.33
2019-05-22T03:02:06.555Z,23.47
2019-05-22T03:04:59.021Z,24.93
2019-05-22T03:07:28.607Z,23.77
2019-05-22T03:09:58.077Z,23.87
2019-05-22T03:12:30.482Z,25.17
2019-05-22T03:15:01.180Z,24.27
2019-05-22T03:17:32.089Z,25.00
2019-05-22T03:20:04.490Z,24.10
2019-05-22T03:22:40.446Z,23.93
2019-05-22T03:25:15.824Z,23.10
2019-05-22T03:27:47.818Z,23.20
2019-05-22T03:30:21.453Z,24.80
2019-05-22T03:32:52.080Z,23.00
2019-05-22T03:35:22.527Z,22.77
2019-05-22T03:37:53.276Z,22.97
2019-05-22T03:40:22.739Z,21.70
2019-05-22T03:42:53.794Z,22.27
2019-05-22T03:45:23.683Z,22.10
2019-05-22T03:47:54.196Z,22.13
2019-05-22T03:50:23.986Z,22.13
2019-05-22T03:52:56.777Z,22.80
2019-05-22T03:55:25.963Z,22.53
2019-05-22T03:57:55.510Z,23.17
2019-05-22T04:00:25.808Z,22.57
2019-05-22T04:02:56.689Z,22.87
2019-05-22T04:05:26.360Z,24.17
2019-05-22T04:07:57.484Z,24.70
2019-05-22T04:10:28.950Z,29.97
2019-05-22T04:12:57.894Z,24.07
2019-05-22T04:15:27.563Z,24.67
2019-05-22T04:17:59.731Z,24.37
2019-05-22T04:20:30.819Z,25.53
2019-05-22T04:23:01.358Z,25.13
2019-05-22T04:25:30.348Z,24.10
2019-05-22T04:27:59.402Z,23.47
2019-05-22T04:30:29.529Z,24.00
2019-05-22T04:32:58.629Z,24.93
2019-05-22T04:35:28.031Z,23.97
2019-05-22T04:37:57.707Z,22.27
2019-05-22T04:40:54.195Z,21.33
2019-05-22T04:43:26.523Z,22.47
2019-05-22T04:45:56.890Z,21.33
2019-05-22T04:48:27.083Z,22.67
2019-05-22T04:50:59.190Z,21.13
2019-05-22T04:53:29.216Z,20.93
2019-05-22T04:55:58.234Z,20.90
2019-05-22T04:58:30.201Z,19.77
2019-05-22T05:00:59.311Z,19.53
2019-05-22T05:03:29.358Z,19.73
2019-05-22T05:05:58.967Z,19.57
2019-05-22T05:08:29.074Z,19.87
2019-05-22T05:11:00.515Z,20.60
2019-05-22T05:13:29.403Z,21.13
2019-05-22T05:15:58.296Z,19.97
2019-05-22T05:18:27.976Z,19.40
2019-05-22T05:20:56.952Z,19.53
2019-05-22T05:23:26.466Z,17.23
2019-05-22T05:25:55.306Z,17.00
2019-05-22T05:28:24.754Z,16.13
2019-05-22T05:30:54.220Z,15.60
2019-05-22T05:33:23.745Z,14.60
2019-05-22T05:35:52.690Z,15.77
2019-05-22T05:38:31.978Z,15.40
2019-05-22T05:41:01.857Z,15.73
2019-05-22T05:43:31.031Z,16.53
2019-05-22T05:46:00.163Z,16.93
2019-05-22T05:48:31.091Z,16.90
2019-05-22T05:51:39.150Z,17.80
2019-05-22T05:54:15.188Z,17.57
2019-05-22T05:56:50.219Z,17.77
2019-05-22T05:59:22.592Z,16.90
2019-05-22T06:01:58.595Z,17.07
2019-05-22T06:04:35.108Z,16.27
2019-05-22T06:07:18.982Z,16.83
2019-05-22T06:09:54.407Z,16.67
2019-05-22T06:12:23.325Z,17.50
2019-05-22T06:14:54.106Z,18.73
2019-05-22T06:18:16.203Z,19.67
2019-05-22T06:21:02.495Z,20.00
2019-05-22T06:23:54.608Z,16.23
2019-05-22T06:27:08.244Z,15.70
2019-05-22T06:30:00.269Z,15.10
2019-05-22T06:33:13.565Z,15.93
2019-05-22T06:35:44.456Z,16.00
2019-05-22T06:38:49.299Z,14.33
2019-05-22T06:41:18.965Z,13.80
2019-05-22T06:44:43.938Z,14.83
2019-05-22T06:47:24.290Z,13.83
2019-05-22T06:49:57.765Z,15.30
2019-05-22T06:52:27.429Z,15.53
2019-05-22T06:54:57.256Z,15.83
2019-05-22T06:57:32.053Z,15.67
2019-05-22T07:00:14.232Z,15.73
2019-05-22T07:02:35.513Z,14.60
2019-05-22T07:05:06.360Z,15.33
2019-05-22T07:07:35.307Z,15.03
2019-05-22T07:10:06.514Z,13.73
2019-05-22T07:12:36.915Z,13.60
2019-05-22T07:15:50.259Z,12.93
2019-05-22T07:18:22.599Z,13.80
2019-05-22T07:20:52.248Z,13.37
2019-05-22T07:23:34.909Z,12.30
2019-05-22T07:26:04.309Z,11.53
2019-05-22T07:28:33.519Z,11.17
2019-05-22T07:31:04.379Z,10.37
2019-05-22T07:33:33.735Z,10.67
2019-05-22T07:36:10.266Z,9.13
2019-05-22T07:38:35.189Z,9.53
2019-05-22T07:41:05.253Z,9.90
2019-05-22T07:43:34.215Z,9.27
2019-05-22T07:46:03.572Z,9.33
2019-05-22T07:48:32.595Z,8.73
2019-05-22T07:51:04.466Z,8.30
2019-05-22T07:53:33.416Z,7.47
2019-05-22T07:56:06.017Z,9.10
2019-05-22T07:58:35.984Z,7.17
2019-05-22T08:01:06.446Z,6.57
2019-05-22T08:03:37.442Z,6.50
2019-05-22T08:06:08.393Z,6.90
2019-05-22T08:08:38.369Z,6.43
2019-05-22T08:11:09.504Z,6.80
2019-05-22T08:13:39.851Z,7.03
2019-05-22T08:16:09.823Z,7.33
2019-05-22T08:18:41.358Z,7.23
2019-05-22T08:21:11.628Z,7.60
2019-05-22T08:23:40.959Z,7.27
2019-05-22T08:26:11.561Z,7.10
2019-05-22T08:28:40.915Z,7.20
2019-05-22T08:31:10.840Z,7.37
2019-05-22T08:33:39.814Z,7.30
2019-05-22T08:36:09.219Z,8.73
2019-05-22T08:38:39.184Z,7.57
2019-05-22T08:41:10.958Z,7.50
2019-05-22T08:44:11.227Z,7.60
2019-05-22T08:46:13.407Z,7.60
2019-05-22T08:48:47.942Z,7.83
2019-05-22T08:51:15.871Z,8.40
2019-05-22T08:53:47.926Z,8.00
2019-05-22T08:56:16.300Z,7.50
2019-05-22T08:58:46.244Z,7.67
2019-05-22T09:01:15.710Z,7.53
2019-05-22T09:03:46.545Z,8.13
2019-05-22T09:06:15.681Z,8.77
2019-05-22T09:08:44.611Z,8.40
2019-05-22T09:11:13.666Z,9.33
2019-05-22T09:13:42.905Z,10.00
2019-05-22T09:16:14.448Z,10.60
2019-05-22T09:18:43.664Z,11.07
2019-05-22T09:21:13.402Z,10.10
2019-05-22T09:23:42.731Z,10.40
2019-05-22T09:26:11.591Z,10.77
2019-05-22T09:28:40.619Z,10.77
2019-05-22T09:31:09.609Z,11.03
2019-05-22T09:33:39.467Z,11.17
2019-05-22T09:36:09.618Z,11.13
2019-05-22T09:38:38.678Z,10.50
2019-05-22T09:41:07.717Z,10.17
2019-05-22T09:43:36.919Z,10.53
2019-05-22T09:46:06.658Z,10.43
2019-05-22T09:48:36.087Z,9.80
2019-05-22T09:51:05.122Z,9.53
2019-05-22T09:53:34.911Z,9.10
2019-05-22T09:56:04.622Z,8.73
2019-05-22T09:58:33.661Z,7.70
2019-05-22T10:01:04.331Z,8.20
2019-05-22T10:03:34.131Z,7.93
2019-05-22T10:06:03.271Z,8.13
2019-05-22T10:08:32.435Z,7.90
2019-05-22T10:11:01.315Z,7.80
2019-05-22T10:13:30.861Z,7.50
2019-05-22T10:15:59.870Z,7.67
2019-05-22T10:18:29.038Z,7.83
2019-05-22T10:20:58.259Z,7.43
2019-05-22T10:23:28.547Z,7.07
2019-05-22T10:25:57.783Z,7.87
2019-05-22T10:28:27.304Z,7.60
2019-05-22T10:30:57.427Z,6.80
2019-05-22T10:33:27.378Z,6.97
2019-05-22T10:35:56.547Z,6.67
2019-05-22T10:38:25.423Z,6.47
2019-05-22T10:40:58.506Z,6.60
2019-05-22T10:43:25.172Z,6.30
2019-05-22T10:45:54.431Z,6.33
2019-05-22T10:48:23.709Z,6.83
2019-05-22T10:50:52.589Z,6.60
2019-05-22T10:53:33.035Z,7.17
2019-05-22T10:55:52.469Z,6.73
2019-05-22T10:58:21.531Z,6.57
2019-05-22T11:00:50.371Z,6.40
2019-05-22T11:03:19.351Z,6.33
2019-05-22T11:06:05.888Z,6.33
2019-05-22T11:08:19.637Z,6.20
2019-05-22T11:10:48.552Z,5.40
2019-05-22T11:13:18.239Z,5.40
2019-05-22T11:15:47.267Z,5.60
2019-05-22T11:18:16.610Z,6.07
2019-05-22T11:20:45.914Z,5.83
2019-05-22T11:23:15.499Z,5.77
2019-05-22T11:25:44.476Z,5.80
2019-05-22T11:28:13.515Z,5.80
2019-05-22T11:30:42.579Z,5.57
2019-05-22T11:33:12.260Z,6.23
2019-05-22T11:35:41.618Z,5.37
2019-05-22T11:38:10.838Z,5.43
2019-05-22T11:40:40.621Z,5.27
2019-05-22T11:43:11.338Z,5.80
2019-05-22T11:45:40.668Z,5.73
2019-05-22T11:48:10.022Z,5.43
2019-05-22T11:50:39.686Z,5.50
2019-05-22T11:53:08.959Z,6.30
2019-05-22T11:55:45.429Z,5.90
2019-05-22T11:58:10.352Z,6.30
2019-05-22T12:00:41.688Z,6.70
2019-05-22T12:03:11.507Z,5.93
2019-05-22T12:05:40.686Z,6.37
2019-05-22T12:08:11.704Z,6.20
2019-05-22T12:10:40.802Z,6.43
2019-05-22T12:13:10.829Z,6.53
2019-05-22T12:15:40.362Z,6.23
2019-05-22T12:18:10.716Z,5.60
2019-05-22T12:20:40.056Z,6.33
2019-05-22T12:23:09.212Z,6.00
2019-05-22T12:25:38.325Z,5.97
2019-05-22T12:28:07.482Z,5.90
2019-05-22T12:30:37.110Z,6.30
2019-05-22T12:33:13.350Z,6.00
2019-05-22T12:35:41.129Z,6.70
2019-05-22T12:38:11.559Z,6.60
2019-05-22T12:40:40.597Z,6.93
2019-05-22T12:43:11.232Z,6.53
2019-05-22T12:45:40.390Z,6.90
2019-05-22T12:48:10.099Z,6.77
2019-05-22T12:50:40.055Z,6.70
2019-05-22T12:53:11.275Z,6.87
2019-05-22T12:55:40.864Z,6.90
2019-05-22T12:58:10.411Z,6.87
2019-05-22T13:00:40.072Z,6.90
2019-05-22T13:03:09.338Z,6.53
2019-05-22T13:05:39.260Z,5.93
2019-05-22T13:08:09.931Z,6.20
2019-05-22T13:10:39.412Z,4.97
2019-05-22T13:13:08.893Z,5.10
2019-05-22T13:15:39.324Z,4.90
2019-05-22T13:18:10.689Z,4.40
2019-05-22T13:20:44.633Z,4.60
2019-05-22T13:23:15.450Z,3.77
2019-05-22T13:25:46.049Z,4.17
2019-05-22T13:28:18.914Z,4.20
2019-05-22T13:30:52.754Z,4.90
2019-05-22T13:33:25.919Z,4.87
2019-05-22T13:35:55.939Z,4.80
2019-05-22T13:38:25.519Z,4.50
2019-05-22T13:40:55.159Z,4.57
2019-05-22T13:43:25.319Z,4.47
2019-05-22T13:45:54.706Z,4.77
2019-05-22T13:48:23.739Z,5.20
2019-05-22T13:50:53.000Z,4.80
2019-05-22T13:53:22.820Z,4.83
2019-05-22T13:55:52.453Z,5.03
2019-05-22T13:58:23.343Z,5.23
2019-05-22T14:00:52.429Z,5.30
2019-05-22T14:03:21.956Z,4.87
2019-05-22T14:05:52.282Z,5.00
2019-05-22T14:08:22.298Z,5.10
2019-05-22T14:10:52.009Z,5.20
2019-05-22T14:13:23.216Z,5.87
2019-05-22T14:15:56.497Z,4.90
2019-05-22T14:18:23.014Z,5.23
2019-05-22T14:20:52.190Z,4.97
2019-05-22T14:23:21.631Z,4.77
2019-05-22T14:25:51.451Z,4.37
2019-05-22T14:28:21.566Z,4.33
2019-05-22T14:30:52.796Z,4.53
2019-05-22T14:33:22.216Z,4.67
2019-05-22T14:35:53.448Z,4.27
2019-05-22T14:38:22.530Z,4.70
2019-05-22T14:40:51.595Z,4.67
2019-05-22T14:43:20.750Z,4.33
2019-05-22T14:45:49.689Z,4.60
2019-05-22T14:48:19.151Z,4.40
2019-05-22T14:50:48.328Z,4.23
2019-05-22T14:53:17.956Z,4.00
2019-05-22T14:55:47.959Z,4.43
2019-05-22T14:58:17.363Z,3.90
2019-05-22T15:00:47.882Z,3.80
2019-05-22T15:03:17.996Z,3.57
2019-05-22T15:05:46.957Z,3.43
2019-05-22T15:08:16.223Z,2.90
2019-05-22T15:10:46.155Z,3.00
2019-05-22T15:13:15.215Z,3.77
2019-05-22T15:15:44.326Z,3.47
2019-05-22T15:18:13.315Z,3.30
2019-05-22T15:21:06.014Z,3.33
2019-05-22T15:23:35.284Z,3.13
2019-05-22T15:26:04.466Z,2.53
2019-05-22T15:28:33.515Z,2.83
2019-05-22T15:31:02.916Z,2.90
2019-05-22T15:33:34.809Z,3.00
2019-05-22T15:36:06.959Z,3.10
2019-05-22T15:38:38.655Z,2.57
2019-05-22T15:41:29.390Z,3.07
2019-05-22T15:43:59.311Z,3.23
2019-05-22T15:46:29.368Z,3.30
2019-05-22T15:48:59.679Z,3.23
2019-05-22T15:51:34.395Z,3.00
2019-05-22T15:54:06.195Z,2.83
2019-05-22T15:56:37.910Z,2.83
2019-05-22T15:59:10.180Z,2.80
2019-05-22T16:01:39.648Z,3.10
2019-05-22T16:04:11.548Z,2.67
2019-05-22T16:06:40.588Z,2.80
2019-05-22T16:09:13.231Z,3.07
2019-05-22T16:11:42.793Z,2.90
2019-05-22T16:14:13.114Z,2.67
2019-05-22T16:16:45.050Z,2.57
2019-05-22T16:19:14.383Z,3.00
2019-05-22T16:21:47.241Z,2.87
2019-05-22T16:24:17.028Z,2.53
2019-05-22T16:26:46.094Z,2.80
2019-05-22T16:29:16.168Z,2.80
2019-05-22T16:31:46.467Z,2.80
2019-05-22T16:34:16.510Z,2.83
2019-05-22T16:36:46.096Z,2.77
2019-05-22T16:39:16.427Z,2.80
2019-05-22T16:41:46.538Z,2.20
2019-05-22T16:44:16.595Z,2.40
2019-05-22T16:46:53.871Z,2.90
2019-05-22T16:49:23.358Z,2.43
2019-05-22T16:51:52.344Z,2.80
2019-05-22T16:54:21.586Z,2.67
2019-05-22T16:56:51.262Z,3.13
2019-05-22T16:59:20.536Z,2.83
2019-05-22T17:01:59.977Z,3.00
2019-05-22T17:04:21.166Z,2.80
2019-05-22T17:06:50.393Z,3.00
2019-05-22T17:09:21.524Z,2.37
2019-05-22T17:11:51.043Z,2.83
2019-05-22T17:14:21.624Z,2.80
2019-05-22T17:16:51.697Z,2.60
2019-05-22T17:19:26.944Z,2.23
2019-05-22T17:21:52.512Z,2.40
2019-05-22T17:24:22.575Z,2.80
2019-05-22T17:26:53.649Z,2.60
2019-05-22T17:29:24.487Z,2.60
2019-05-22T17:31:54.219Z,2.60
2019-05-22T17:34:33.476Z,2.47
2019-05-22T17:37:08.117Z,2.63
2019-05-22T17:39:39.404Z,2.60
2019-05-22T17:42:12.047Z,2.70
2019-05-22T17:44:43.951Z,2.70
2019-05-22T17:47:13.483Z,3.00
2019-05-22T17:49:43.854Z,2.90
2019-05-22T17:52:14.530Z,2.67
2019-05-22T17:54:44.377Z,2.73
2019-05-22T17:57:13.907Z,2.60
2019-05-22T17:59:43.082Z,2.90
2019-05-22T18:02:13.911Z,2.83
2019-05-22T18:04:42.971Z,2.90
2019-05-22T18:07:12.399Z,2.97
2019-05-22T18:09:41.378Z,3.00
2019-05-22T18:12:11.051Z,3.10
2019-05-22T18:14:40.082Z,3.23
2019-05-22T18:17:10.122Z,3.47
2019-05-22T18:19:39.638Z,3.10
2019-05-22T18:22:09.986Z,3.03
2019-05-22T18:24:39.005Z,3.30
2019-05-22T18:27:08.418Z,3.30
2019-05-22T18:29:37.583Z,3.10
2019-05-22T18:32:07.898Z,3.23
2019-05-22T18:34:37.023Z,3.90
2019-05-22T18:37:05.886Z,3.47
2019-05-22T18:39:35.745Z,3.07
2019-05-22T18:42:05.260Z,3.30
2019-05-22T18:44:34.531Z,2.90
2019-05-22T18:47:04.213Z,3.50
2019-05-22T18:49:33.271Z,3.43
2019-05-22T18:52:02.695Z,3.30
2019-05-22T18:54:31.631Z,4.00
2019-05-22T18:57:00.678Z,3.20
2019-05-22T18:59:29.615Z,3.50
2019-05-22T19:02:16.618Z,3.50
2019-05-22T19:04:45.525Z,3.60
2019-05-22T19:07:15.712Z,3.50
2019-05-22T19:09:45.744Z,4.17
2019-05-22T19:12:14.911Z,3.77
2019-05-22T19:14:44.277Z,3.83
2019-05-22T19:17:14.766Z,4.00
2019-05-22T19:19:45.869Z,3.90
2019-05-22T19:22:16.369Z,3.73
2019-05-22T19:24:45.392Z,4.23
2019-05-22T19:27:14.632Z,3.83
2019-05-22T19:29:43.941Z,3.80
2019-05-22T19:32:13.145Z,3.53
2019-05-22T19:34:42.548Z,3.57
2019-05-22T19:37:12.532Z,3.60
2019-05-22T19:39:42.051Z,4.00
2019-05-22T19:42:11.549Z,4.07
2019-05-22T19:44:40.688Z,3.60
2019-05-22T19:47:09.714Z,3.43
2019-05-22T19:49:38.993Z,4.10
2019-05-22T19:52:09.114Z,3.90
2019-05-22T19:54:38.366Z,4.37
2019-05-22T19:57:08.991Z,4.40
2019-05-22T19:59:38.298Z,4.33
2019-05-22T20:02:07.599Z,4.70
2019-05-22T20:04:37.231Z,5.17
2019-05-22T20:07:07.501Z,5.27
2019-05-22T20:09:36.740Z,4.80
2019-05-22T20:12:07.408Z,4.90
2019-05-22T20:14:37.033Z,4.97
2019-05-22T20:17:06.484Z,4.60
2019-05-22T20:19:35.849Z,5.07
2019-05-22T20:22:07.018Z,4.93
2019-05-22T20:24:36.663Z,4.37
2019-05-22T20:27:09.529Z,4.67
2019-05-22T20:29:37.882Z,5.23
2019-05-22T20:32:10.118Z,4.97
2019-05-22T20:34:40.474Z,4.70
2019-05-22T20:37:10.134Z,5.37
2019-05-22T20:39:39.505Z,4.60
2019-05-22T20:42:09.230Z,4.70
2019-05-22T20:44:39.092Z,5.47
2019-05-22T20:47:10.478Z,5.20
2019-05-22T20:49:41.973Z,4.83
2019-05-22T20:52:11.788Z,5.03
2019-05-22T20:54:43.368Z,4.77
2019-05-22T20:57:12.705Z,4.60
2019-05-22T20:59:44.199Z,4.93
2019-05-22T21:02:14.271Z,4.60
2019-05-22T21:04:46.014Z,5.57
2019-05-22T21:07:18.043Z,5.40
2019-05-22T21:09:47.307Z,5.23
2019-05-22T21:12:17.859Z,5.57
2019-05-22T21:14:47.725Z,5.50
2019-05-22T21:17:18.050Z,5.67
2019-05-22T21:19:47.487Z,5.30
2019-05-22T21:22:19.645Z,5.50
2019-05-22T21:24:50.717Z,5.43
2019-05-22T21:27:20.094Z,6.80
2019-05-22T21:29:48.907Z,5.70
2019-05-22T21:32:19.010Z,5.83
2019-05-22T21:34:49.213Z,5.43
2019-05-22T21:37:19.594Z,5.10
2019-05-22T21:39:50.344Z,6.43
2019-05-22T21:42:19.336Z,6.10
2019-05-22T21:44:48.474Z,5.50
2019-05-22T21:47:18.779Z,6.03
2019-05-22T21:49:49.614Z,5.60
2019-05-22T21:52:19.536Z,6.10
2019-05-22T21:54:48.504Z,6.00
2019-05-22T21:57:17.782Z,5.93
2019-05-22T21:59:46.736Z,5.90
2019-05-22T22:02:25.012Z,5.53
2019-05-22T22:04:54.330Z,6.07
2019-05-22T22:07:23.735Z,5.37
2019-05-22T22:09:54.166Z,5.53
2019-05-22T22:12:23.843Z,5.80
2019-05-22T22:14:53.151Z,5.83
2019-05-22T22:17:23.811Z,5.67
2019-05-22T22:19:54.585Z,5.53
2019-05-22T22:22:28.245Z,5.50
2019-05-22T22:24:57.473Z,6.57
2019-05-22T22:27:27.220Z,6.07
2019-05-22T22:29:57.467Z,6.30
2019-05-22T22:32:28.610Z,5.67
2019-05-22T22:34:58.046Z,5.07
2019-05-22T22:37:26.947Z,5.70
2019-05-22T22:39:57.163Z,5.47
2019-05-22T22:42:29.072Z,5.90
2019-05-22T22:44:59.056Z,6.27
2019-05-22T22:47:45.250Z,6.50
2019-05-22T22:50:16.491Z,6.67
2019-05-22T22:52:46.091Z,6.33
2019-05-22T22:55:17.395Z,6.10
2019-05-22T22:57:48.543Z,5.80
2019-05-22T23:00:22.799Z,5.33
2019-05-22T23:02:52.944Z,6.00
2019-05-22T23:05:22.124Z,6.13
2019-05-22T23:07:51.395Z,6.43
2019-05-22T23:10:22.920Z,6.43
2019-05-22T23:12:54.120Z,6.20
2019-05-22T23:15:26.062Z,6.33
2019-05-22T23:17:55.587Z,6.77
2019-05-22T23:20:23.090Z,6.87
2019-05-22T23:22:50.594Z,7.40
2019-05-22T23:25:20.044Z,7.17
2019-05-22T23:27:50.910Z,7.10
2019-05-22T23:30:39.656Z,7.47
2019-05-22T23:33:08.622Z,7.67
2019-05-22T23:35:38.311Z,7.53
2019-05-22T23:38:07.310Z,8.50
2019-05-22T23:40:37.318Z,8.57
2019-05-22T23:43:07.335Z,7.93
2019-05-22T23:45:37.448Z,8.53
2019-05-22T23:48:16.171Z,8.87
2019-05-22T23:50:47.196Z,8.83
2019-05-22T23:53:18.481Z,8.37
2019-05-22T23:55:48.769Z,8.00
2019-05-22T23:58:20.157Z,8.80
